createdAt,value
2022-12-28T00:01:53.644Z,20.17
2022-12-28T00:04:21.627Z,19.85
2022-12-28T00:06:52.407Z,17.33
2022-12-28T00:09:20.262Z,17.20
2022-12-28T00:11:48.158Z,20.80
2022-12-28T00:14:16.008Z,19.50
2022-12-28T00:16:44.520Z,16.35
2022-12-28T00:19:14.075Z,22.48
2022-12-28T00:21:42.120Z,20.50
2022-12-28T00:24:18.595Z,23.92
2022-12-28T00:26:46.513Z,17.58
2022-12-28T00:29:14.408Z,18.00
2022-12-28T00:31:42.583Z,19.23
2022-12-28T00:34:10.435Z,17.63
2022-12-28T00:37:10.586Z,17.48
2022-12-28T00:39:27.683Z,20.30
2022-12-28T00:41:55.569Z,16.23
2022-12-28T00:44:23.439Z,19.60
2022-12-28T00:46:51.349Z,20.27
2022-12-28T00:49:19.263Z,23.92
2022-12-28T00:51:52.996Z,18.33
2022-12-28T00:54:20.902Z,15.68
2022-12-28T00:56:50.153Z,19.17
2022-12-28T00:59:18.318Z,15.02
2022-12-28T01:01:46.219Z,22.65
2022-12-28T01:04:14.130Z,22.33
2022-12-28T01:06:42.026Z,20.33
2022-12-28T01:09:09.913Z,23.52
2022-12-28T01:11:37.775Z,21.40
2022-12-28T01:14:10.034Z,20.33
2022-12-28T01:16:38.287Z,21.25
2022-12-28T01:19:09.079Z,17.52
2022-12-28T01:21:37.805Z,20.02
2022-12-28T01:24:08.222Z,23.25
2022-12-28T01:26:40.181Z,19.73
2022-12-28T01:29:09.433Z,29.20
2022-12-28T01:31:37.421Z,15.60
2022-12-28T01:34:05.318Z,22.83
2022-12-28T01:36:36.472Z,22.05
2022-12-28T01:39:11.851Z,17.80
2022-12-28T01:41:43.100Z,19.27
2022-12-28T01:44:41.895Z,16.70
2022-12-28T01:47:14.570Z,15.45
2022-12-28T01:49:47.853Z,13.25
2022-12-28T01:52:19.735Z,11.57
2022-12-28T01:54:51.951Z,13.05
2022-12-28T01:57:22.464Z,12.55
2022-12-28T01:59:57.967Z,15.73
2022-12-28T02:02:26.141Z,14.32
2022-12-28T02:04:54.552Z,12.38
2022-12-28T02:07:30.993Z,13.93
2022-12-28T02:10:42.726Z,15.25
2022-12-28T02:12:47.855Z,13.60
2022-12-28T02:15:23.037Z,15.13
2022-12-28T02:17:51.663Z,12.68
2022-12-28T02:20:20.445Z,14.25
2022-12-28T02:23:17.352Z,13.43
2022-12-28T02:26:21.635Z,18.10
2022-12-28T02:29:19.159Z,15.65
2022-12-28T02:31:57.425Z,13.13
2022-12-28T02:34:29.775Z,14.50
2022-12-28T02:37:04.916Z,11.05
2022-12-28T02:39:39.455Z,14.23
2022-12-28T02:42:09.721Z,12.60
2022-12-28T02:44:56.742Z,12.82
2022-12-28T02:47:42.750Z,12.15
2022-12-28T02:50:15.370Z,13.52
2022-12-28T02:53:03.087Z,12.45
2022-12-28T02:56:02.538Z,13.27
2022-12-28T02:58:47.847Z,14.05
2022-12-28T03:01:27.132Z,14.23
2022-12-28T03:04:07.139Z,10.20
2022-12-28T03:07:01.903Z,15.20
2022-12-28T03:09:34.920Z,11.90
2022-12-28T03:12:07.537Z,11.18
2022-12-28T03:14:39.283Z,12.82
2022-12-28T03:17:28.335Z,6.15
2022-12-28T03:20:22.026Z,12.27
2022-12-28T03:23:09.546Z,10.27
2022-12-28T03:25:58.660Z,10.15
2022-12-28T03:28:47.451Z,8.07
2022-12-28T03:31:18.695Z,13.38
2022-12-28T03:33:50.968Z,10.65
2022-12-28T03:36:27.647Z,9.65
2022-12-28T03:39:04.522Z,12.07
2022-12-28T03:41:36.281Z,10.77
2022-12-28T03:44:09.503Z,12.20
2022-12-28T03:46:44.911Z,10.77
2022-12-28T03:49:14.761Z,11.52
2022-12-28T03:51:44.003Z,12.57
2022-12-28T03:54:15.612Z,10.70
2022-12-28T03:56:47.844Z,12.60
2022-12-28T03:59:16.242Z,10.98
2022-12-28T04:01:44.663Z,10.35
2022-12-28T04:04:14.189Z,11.65
2022-12-28T04:06:43.928Z,9.80
2022-12-28T04:09:14.758Z,9.55
2022-12-28T04:11:42.692Z,11.93
2022-12-28T04:14:11.450Z,9.80
2022-12-28T04:16:41.577Z,10.73
2022-12-28T04:19:10.351Z,10.77
2022-12-28T04:21:39.609Z,9.05
2022-12-28T04:24:07.740Z,7.63
2022-12-28T04:26:35.676Z,8.77
2022-12-28T04:29:03.800Z,10.85
2022-12-28T04:31:32.132Z,9.57
2022-12-28T04:34:00.613Z,9.32
2022-12-28T04:36:28.502Z,12.45
2022-12-28T04:38:59.554Z,8.20
2022-12-28T04:41:27.743Z,11.38
2022-12-28T04:43:56.254Z,9.02
2022-12-28T04:46:24.851Z,8.85
2022-12-28T04:48:53.577Z,14.77
2022-12-28T04:51:23.958Z,8.15
2022-12-28T04:53:52.600Z,11.20
2022-12-28T04:56:23.498Z,8.63
2022-12-28T04:58:57.343Z,10.20
2022-12-28T05:01:25.679Z,7.47
2022-12-28T05:03:57.995Z,7.60
2022-12-28T05:06:28.216Z,10.95
2022-12-28T05:08:56.650Z,6.63
2022-12-28T05:11:27.776Z,8.23
2022-12-28T05:13:56.067Z,7.93
2022-12-28T05:16:26.362Z,8.40
2022-12-28T05:18:55.649Z,6.68
2022-12-28T05:21:25.754Z,7.05
2022-12-28T05:23:54.254Z,6.85
2022-12-28T05:26:24.173Z,8.50
2022-12-28T05:28:53.608Z,5.40
2022-12-28T05:31:23.228Z,7.03
2022-12-28T05:33:51.762Z,10.10
2022-12-28T05:36:22.895Z,8.40
2022-12-28T05:38:51.315Z,5.40
2022-12-28T05:41:21.139Z,6.55
2022-12-28T05:43:53.109Z,7.18
2022-12-28T05:46:25.119Z,6.72
2022-12-28T05:48:54.968Z,8.35
2022-12-28T05:51:24.593Z,6.93
2022-12-28T05:53:52.570Z,6.57
2022-12-28T05:56:23.101Z,6.20
2022-12-28T05:58:54.926Z,5.50
2022-12-28T06:01:26.853Z,7.18
2022-12-28T06:03:56.444Z,7.05
2022-12-28T06:06:25.139Z,7.20
2022-12-28T06:08:53.055Z,8.18
2022-12-28T06:11:22.977Z,4.93
2022-12-28T06:13:51.688Z,6.63
2022-12-28T06:16:22.239Z,6.18
2022-12-28T06:18:52.383Z,6.78
2022-12-28T06:21:22.480Z,7.25
2022-12-28T06:23:50.883Z,6.30
2022-12-28T06:26:20.945Z,5.78
2022-12-28T06:28:50.071Z,4.72
2022-12-28T06:31:20.387Z,9.80
2022-12-28T06:33:56.184Z,4.82
2022-12-28T06:36:25.798Z,5.50
2022-12-28T06:38:54.970Z,8.20
2022-12-28T06:41:24.070Z,5.38
2022-12-28T06:43:52.742Z,5.35
2022-12-28T06:46:23.180Z,8.98
2022-12-28T06:48:52.903Z,7.50
2022-12-28T06:51:22.207Z,5.65
2022-12-28T06:53:51.360Z,7.45
2022-12-28T06:56:21.507Z,5.57
2022-12-28T06:58:52.707Z,12.13
2022-12-28T07:01:25.234Z,6.63
2022-12-28T07:03:56.265Z,7.40
2022-12-28T07:06:26.170Z,4.82
2022-12-28T07:09:00.859Z,6.55
2022-12-28T07:11:29.299Z,7.65
2022-12-28T07:13:57.535Z,5.68
2022-12-28T07:16:27.445Z,4.93
2022-12-28T07:18:59.254Z,4.72
2022-12-28T07:21:28.903Z,6.00
2022-12-28T07:23:57.903Z,5.13
2022-12-28T07:26:27.795Z,4.75
2022-12-28T07:28:58.142Z,4.47
2022-12-28T07:31:27.740Z,6.90
2022-12-28T07:33:58.198Z,5.18
2022-12-28T07:36:27.961Z,4.70
2022-12-28T07:38:55.999Z,3.95
2022-12-28T07:41:25.326Z,6.25
2022-12-28T07:43:53.603Z,4.28
2022-12-28T07:46:26.206Z,5.47
2022-12-28T07:48:58.329Z,7.20
2022-12-28T07:51:28.036Z,6.15
2022-12-28T07:53:57.177Z,4.05
2022-12-28T07:56:26.763Z,7.18
2022-12-28T07:58:57.056Z,5.32
2022-12-28T08:01:26.168Z,3.90
2022-12-28T08:04:00.880Z,4.75
2022-12-28T08:06:29.718Z,6.57
2022-12-28T08:09:00.495Z,4.05
2022-12-28T08:11:36.981Z,5.35
2022-12-28T08:14:05.891Z,7.95
2022-12-28T08:16:35.993Z,3.63
2022-12-28T08:19:07.895Z,5.22
2022-12-28T08:21:38.872Z,4.93
2022-12-28T08:24:11.024Z,3.60
2022-12-28T08:26:41.799Z,9.23
2022-12-28T08:29:11.788Z,4.40
2022-12-28T08:31:42.787Z,4.65
2022-12-28T08:34:13.769Z,4.88
2022-12-28T08:36:42.650Z,6.88
2022-12-28T08:39:14.459Z,5.07
2022-12-28T08:41:43.822Z,2.90
2022-12-28T08:44:12.127Z,3.40
2022-12-28T08:46:41.483Z,6.03
2022-12-28T08:49:09.693Z,3.00
2022-12-28T08:51:41.138Z,3.42
2022-12-28T08:54:10.016Z,9.68
2022-12-28T08:56:39.872Z,5.25
2022-12-28T08:59:12.822Z,4.28
2022-12-28T09:01:44.493Z,3.80
2022-12-28T09:04:15.141Z,5.50
2022-12-28T09:06:43.408Z,6.10
2022-12-28T09:09:14.070Z,4.50
2022-12-28T09:11:42.466Z,3.17
2022-12-28T09:14:22.801Z,7.50
2022-12-28T09:16:51.922Z,2.50
2022-12-28T09:19:20.143Z,4.65
2022-12-28T09:21:52.335Z,6.93
2022-12-28T09:24:23.681Z,3.65
2022-12-28T09:26:53.047Z,3.38
2022-12-28T09:29:22.592Z,6.70
2022-12-28T09:31:53.614Z,6.55
2022-12-28T09:34:38.165Z,4.18
2022-12-28T09:37:06.783Z,4.53
2022-12-28T09:39:34.813Z,5.93
2022-12-28T09:42:07.871Z,2.53
2022-12-28T09:45:02.186Z,2.45
2022-12-28T09:47:35.942Z,5.90
2022-12-28T09:50:30.548Z,6.38
2022-12-28T09:53:20.775Z,3.72
2022-12-28T09:55:59.834Z,3.05
2022-12-28T09:58:29.353Z,3.80
2022-12-28T10:01:00.745Z,5.18
2022-12-28T10:03:35.908Z,2.63
2022-12-28T10:06:06.265Z,2.38
2022-12-28T10:08:44.956Z,6.82
2022-12-28T10:11:17.987Z,2.72
2022-12-28T10:13:55.278Z,1.58
2022-12-28T10:16:27.782Z,5.32
2022-12-28T10:18:56.167Z,4.60
2022-12-28T10:21:32.007Z,2.63
2022-12-28T10:24:30.422Z,3.95
2022-12-28T10:26:49.897Z,4.43
2022-12-28T10:29:20.606Z,5.10
2022-12-28T10:32:00.686Z,3.65
2022-12-28T10:34:36.953Z,2.47
2022-12-28T10:37:15.814Z,3.53
2022-12-28T10:39:52.323Z,2.78
2022-12-28T10:42:28.423Z,5.03
2022-12-28T10:45:06.149Z,3.20
2022-12-28T10:47:41.560Z,2.38
2022-12-28T10:50:49.897Z,2.85
2022-12-28T10:53:29.814Z,2.03
2022-12-28T10:56:24.821Z,2.88
2022-12-28T10:58:54.483Z,1.13
2022-12-28T11:01:27.579Z,2.47
2022-12-28T11:04:03.546Z,1.50
2022-12-28T11:06:38.653Z,3.17
2022-12-28T11:09:15.888Z,3.75
2022-12-28T11:11:49.609Z,1.45
2022-12-28T11:14:26.429Z,3.40
2022-12-28T11:16:54.568Z,3.60
2022-12-28T11:19:25.941Z,4.47
2022-12-28T11:21:54.366Z,2.33
2022-12-28T11:24:27.776Z,5.78
2022-12-28T11:26:56.049Z,2.35
2022-12-28T11:29:24.119Z,1.70
2022-12-28T11:31:57.876Z,4.32
2022-12-28T11:34:33.678Z,2.33
2022-12-28T11:37:02.136Z,2.35
2022-12-28T11:39:42.945Z,2.38
2022-12-28T11:42:37.991Z,2.10
2022-12-28T11:44:59.859Z,2.83
2022-12-28T11:47:34.111Z,3.15
2022-12-28T11:50:39.403Z,3.45
2022-12-28T11:53:22.519Z,2.33
2022-12-28T11:56:17.590Z,1.90
2022-12-28T11:58:48.917Z,1.95
2022-12-28T12:01:45.387Z,2.35
2022-12-28T12:04:46.107Z,1.80
2022-12-28T12:07:31.183Z,1.92
2022-12-28T12:10:31.445Z,1.25
2022-12-28T12:13:24.028Z,2.08
2022-12-28T12:15:53.394Z,2.70
2022-12-28T12:18:24.167Z,2.13
2022-12-28T12:20:56.919Z,4.25
2022-12-28T12:23:40.622Z,3.05
2022-12-28T12:26:22.165Z,2.10
2022-12-28T12:28:53.913Z,2.97
2022-12-28T12:31:33.911Z,2.63
2022-12-28T12:34:08.263Z,1.80
2022-12-28T12:36:54.664Z,3.20
2022-12-28T12:39:38.889Z,3.00
2022-12-28T12:42:17.395Z,3.53
2022-12-28T12:44:54.873Z,3.38
2022-12-28T12:48:08.232Z,4.43
2022-12-28T12:53:29.379Z,1.55
2022-12-28T12:56:06.606Z,4.13
2022-12-28T12:58:49.611Z,2.90
2022-12-28T13:01:30.990Z,2.33
2022-12-28T13:04:06.992Z,2.42
2022-12-28T13:06:39.655Z,2.22
2022-12-28T13:09:13.510Z,1.08
2022-12-28T13:11:41.599Z,2.17
2022-12-28T13:14:18.919Z,2.58
2022-12-28T13:16:49.368Z,2.08
2022-12-28T13:19:20.836Z,4.10
2022-12-28T13:21:50.877Z,3.35
2022-12-28T13:24:27.157Z,2.03
2022-12-28T13:26:56.412Z,4.85
2022-12-28T13:29:27.717Z,2.05
2022-12-28T13:31:55.993Z,2.20
2022-12-28T13:34:27.248Z,3.55
2022-12-28T13:36:58.376Z,1.33
2022-12-28T13:39:27.415Z,1.63
2022-12-28T13:41:57.978Z,2.78
2022-12-28T13:44:33.248Z,2.78
2022-12-28T13:47:08.681Z,3.22
2022-12-28T13:49:41.874Z,2.85
2022-12-28T13:52:13.407Z,3.50
2022-12-28T13:54:45.468Z,2.42
2022-12-28T13:57:45.303Z,1.83
2022-12-28T14:00:07.829Z,3.30
2022-12-28T14:02:36.465Z,1.98
2022-12-28T14:05:04.922Z,4.30
2022-12-28T14:07:35.349Z,1.73
2022-12-28T14:10:04.519Z,2.85
2022-12-28T14:12:33.263Z,1.75
2022-12-28T14:15:01.857Z,2.35
2022-12-28T14:17:31.953Z,4.38
2022-12-28T14:20:00.156Z,5.65
2022-12-28T14:22:33.126Z,2.10
2022-12-28T14:25:02.850Z,2.13
2022-12-28T14:27:34.064Z,3.95
2022-12-28T14:30:05.576Z,3.17
2022-12-28T14:35:27.245Z,3.83
2022-12-28T14:37:57.058Z,4.85
2022-12-28T14:40:30.158Z,4.45
2022-12-28T14:42:58.788Z,3.47
2022-12-28T14:46:07.383Z,8.65
2022-12-28T14:48:37.133Z,6.95
2022-12-28T14:51:07.443Z,8.63
2022-12-28T14:53:35.601Z,5.53
2022-12-28T14:56:07.671Z,5.32
2022-12-28T14:58:50.499Z,5.18
2022-12-28T15:00:15.928Z,4.20
2022-12-28T15:01:20.887Z,3.95
2022-12-28T15:03:52.735Z,3.15
2022-12-28T15:06:21.762Z,8.07
2022-12-28T15:08:50.884Z,10.05
2022-12-28T15:11:20.385Z,11.38
2022-12-28T15:13:49.260Z,5.40
2022-12-28T15:16:19.195Z,5.45
2022-12-28T15:18:47.510Z,9.55
2022-12-28T15:21:19.449Z,5.32
2022-12-28T15:23:50.649Z,6.20
2022-12-28T15:26:19.281Z,5.10
2022-12-28T15:28:47.441Z,6.70
2022-12-28T15:31:17.975Z,7.00
2022-12-28T15:33:46.557Z,8.18
2022-12-28T15:36:18.378Z,4.93
2022-12-28T15:38:47.046Z,6.75
2022-12-28T15:41:47.658Z,4.80
2022-12-28T15:44:22.813Z,5.70
2022-12-28T15:46:50.914Z,3.05
2022-12-28T15:49:19.319Z,3.47
2022-12-28T15:51:48.766Z,2.55
2022-12-28T15:54:17.101Z,2.25
2022-12-28T15:56:45.183Z,2.65
2022-12-28T15:59:15.206Z,3.58
2022-12-28T16:01:45.229Z,3.58
2022-12-28T16:04:13.964Z,2.35
2022-12-28T16:06:44.709Z,2.55
2022-12-28T16:09:15.096Z,4.22
2022-12-28T16:11:51.497Z,3.42
2022-12-28T16:14:22.963Z,3.15
2022-12-28T16:16:53.231Z,3.22
2022-12-28T16:19:21.565Z,3.45
2022-12-28T16:21:51.359Z,3.78
2022-12-28T16:24:21.380Z,2.80
2022-12-28T16:26:49.371Z,4.18
2022-12-28T16:29:18.035Z,2.40
2022-12-28T16:31:46.100Z,3.90
2022-12-28T16:34:18.299Z,4.15
2022-12-28T16:36:47.305Z,3.80
2022-12-28T16:39:17.828Z,3.50
2022-12-28T16:41:47.184Z,8.40
2022-12-28T16:44:17.423Z,3.70
2022-12-28T16:46:45.405Z,2.53
2022-12-28T16:49:13.653Z,5.18
2022-12-28T16:51:43.884Z,4.38
2022-12-28T16:54:15.898Z,3.33
2022-12-28T16:56:44.414Z,5.53
2022-12-28T16:59:17.393Z,4.15
2022-12-28T17:01:47.792Z,3.15
2022-12-28T17:04:16.377Z,3.00
2022-12-28T17:06:46.504Z,3.47
2022-12-28T17:09:15.920Z,3.92
2022-12-28T17:11:46.744Z,5.90
2022-12-28T17:14:29.118Z,5.45
2022-12-28T17:17:03.775Z,3.10
2022-12-28T17:19:31.817Z,2.78
2022-12-28T17:21:59.879Z,4.05
2022-12-28T17:24:27.940Z,3.83
2022-12-28T17:26:56.790Z,4.80
2022-12-28T17:29:27.737Z,4.13
2022-12-28T17:31:55.795Z,7.10
2022-12-28T17:34:25.834Z,4.15
2022-12-28T17:36:53.810Z,5.70
2022-12-28T17:39:21.868Z,3.95
2022-12-28T17:41:50.039Z,4.40
2022-12-28T17:44:18.019Z,3.90
2022-12-28T17:46:49.599Z,7.05
2022-12-28T17:49:18.589Z,2.83
2022-12-28T17:51:49.472Z,4.30
2022-12-28T17:54:19.703Z,3.47
2022-12-28T17:56:47.834Z,3.47
2022-12-28T17:59:17.705Z,7.70
2022-12-28T18:01:47.203Z,3.63
2022-12-28T18:04:15.443Z,5.70
2022-12-28T18:06:43.445Z,4.25
2022-12-28T18:09:11.333Z,5.13
2022-12-28T18:11:39.277Z,4.05
2022-12-28T18:14:07.863Z,6.57
2022-12-28T18:16:35.961Z,3.90
2022-12-28T18:19:05.352Z,3.85
2022-12-28T18:21:33.413Z,4.25
2022-12-28T18:24:01.450Z,3.40
2022-12-28T18:26:29.468Z,5.10
2022-12-28T18:28:58.082Z,4.78
2022-12-28T18:31:26.428Z,6.53
2022-12-28T18:33:57.070Z,5.25
2022-12-28T18:36:26.432Z,4.28
2022-12-28T18:38:54.613Z,5.60
2022-12-28T18:41:27.717Z,5.43
2022-12-28T18:44:01.109Z,3.70
2022-12-28T18:46:29.282Z,7.10
2022-12-28T18:48:57.546Z,5.18
2022-12-28T18:51:27.399Z,6.55
2022-12-28T18:53:55.418Z,6.35
2022-12-28T18:56:23.613Z,6.43
2022-12-28T18:58:53.390Z,5.55
2022-12-28T19:04:13.541Z,10.27
2022-12-28T19:06:43.798Z,5.13
2022-12-28T19:09:12.475Z,5.50
2022-12-28T19:11:41.472Z,8.32
2022-12-28T19:14:14.750Z,5.35
2022-12-28T19:16:44.008Z,6.55
2022-12-28T19:19:12.580Z,5.60
2022-12-28T19:21:43.271Z,5.03
2022-12-28T19:24:14.552Z,5.50
2022-12-28T19:26:43.129Z,5.50
2022-12-28T19:29:12.232Z,7.47
2022-12-28T19:31:40.373Z,6.32
2022-12-28T19:34:11.298Z,8.20
2022-12-28T19:36:39.389Z,9.52
2022-12-28T19:39:08.776Z,9.27
2022-12-28T19:41:39.890Z,7.13
2022-12-28T19:44:08.471Z,7.25
2022-12-28T19:46:38.394Z,7.85
2022-12-28T19:49:08.385Z,6.97
2022-12-28T19:51:36.441Z,8.30
2022-12-28T19:54:08.736Z,7.15
2022-12-28T19:56:36.755Z,6.47
2022-12-28T19:59:07.851Z,6.30
2022-12-28T20:01:37.262Z,6.22
2022-12-28T20:04:12.810Z,6.63
2022-12-28T20:06:42.135Z,8.40
2022-12-28T20:09:15.021Z,4.85
2022-12-28T20:11:45.206Z,6.55
2022-12-28T20:14:14.869Z,4.15
2022-12-28T20:16:44.427Z,9.50
2022-12-28T20:19:18.621Z,5.55
2022-12-28T20:21:46.607Z,5.78
2022-12-28T20:24:17.477Z,6.32
2022-12-28T20:26:45.448Z,6.90
2022-12-28T20:29:16.225Z,9.50
2022-12-28T20:31:44.540Z,5.20
2022-12-28T20:34:12.887Z,5.47
2022-12-28T20:36:41.025Z,4.45
2022-12-28T20:39:10.550Z,5.13
2022-12-28T20:41:57.325Z,7.50
2022-12-28T20:44:28.316Z,5.10
2022-12-28T20:46:57.410Z,6.60
2022-12-28T20:49:27.604Z,4.90
2022-12-28T20:51:56.313Z,4.88
2022-12-28T20:54:27.835Z,6.50
2022-12-28T20:56:57.193Z,7.40
2022-12-28T20:59:26.221Z,6.65
2022-12-28T21:01:55.087Z,4.28
2022-12-28T21:04:24.805Z,4.88
2022-12-28T21:06:53.413Z,5.80
2022-12-28T21:09:21.668Z,5.15
2022-12-28T21:11:49.687Z,9.25
2022-12-28T21:14:19.288Z,5.75
2022-12-28T21:16:47.452Z,5.28
2022-12-28T21:19:15.575Z,5.30
2022-12-28T21:21:43.578Z,5.45
2022-12-28T21:24:11.508Z,4.70
2022-12-28T21:26:39.465Z,5.13
2022-12-28T21:29:07.455Z,3.45
2022-12-28T21:31:36.975Z,4.85
2022-12-28T21:34:05.078Z,4.88
2022-12-28T21:36:33.098Z,4.22
2022-12-28T21:39:01.156Z,3.47
2022-12-28T21:41:46.797Z,7.28
2022-12-28T21:44:16.379Z,4.97
2022-12-28T21:46:46.077Z,4.55
2022-12-28T21:49:14.320Z,5.22
2022-12-28T21:51:42.450Z,5.07
2022-12-28T21:54:13.811Z,4.97
2022-12-28T21:56:43.393Z,4.18
2022-12-28T21:59:12.721Z,4.32
2022-12-28T22:01:59.115Z,4.32
2022-12-28T22:04:46.761Z,3.17
2022-12-28T22:07:17.031Z,5.88
2022-12-28T22:10:02.246Z,5.80
2022-12-28T22:12:36.878Z,3.78
2022-12-28T22:15:25.830Z,4.65
2022-12-28T22:17:56.184Z,3.28
2022-12-28T22:20:29.657Z,4.40
2022-12-28T22:22:59.379Z,6.45
2022-12-28T22:25:28.851Z,4.03
2022-12-28T22:27:58.867Z,4.72
2022-12-28T22:30:27.569Z,3.03
2022-12-28T22:32:56.125Z,3.78
2022-12-28T22:35:25.492Z,2.75
2022-12-28T22:37:53.575Z,4.90
2022-12-28T22:40:21.614Z,2.95
2022-12-28T22:42:50.805Z,5.32
2022-12-28T22:45:20.860Z,3.78
2022-12-28T22:47:54.106Z,4.50
2022-12-28T22:50:22.144Z,4.18
2022-12-28T22:52:54.711Z,6.90
2022-12-28T22:57:50.563Z,4.15
2022-12-28T23:00:18.711Z,4.47
2022-12-28T23:02:49.761Z,7.40
2022-12-28T23:05:18.088Z,4.07
2022-12-28T23:07:46.055Z,6.00
2022-12-28T23:10:15.573Z,5.60
2022-12-28T23:12:43.646Z,3.85
2022-12-28T23:15:18.854Z,4.20
2022-12-28T23:17:47.920Z,5.82
2022-12-28T23:20:33.850Z,5.38
2022-12-28T23:23:19.148Z,3.40
2022-12-28T23:26:06.163Z,6.05
2022-12-28T23:28:35.775Z,5.35
2022-12-28T23:31:04.104Z,3.58
2022-12-28T23:33:32.145Z,4.30
2022-12-28T23:36:03.810Z,3.40
2022-12-28T23:38:32.677Z,2.72
2022-12-28T23:41:24.006Z,2.40
2022-12-28T23:43:52.069Z,3.80
2022-12-28T23:46:20.201Z,3.75
2022-12-28T23:48:48.424Z,3.58
2022-12-28T23:51:17.975Z,4.40
2022-12-28T23:53:46.114Z,4.20
2022-12-28T23:56:15.547Z,3.33
2022-12-28T23:58:43.595Z,4.45
